createdAt,value
2023-04-26T00:01:05.617Z,3.75
2023-04-26T00:03:33.011Z,3.90
2023-04-26T00:06:05.516Z,3.75
2023-04-26T00:08:32.004Z,3.90
2023-04-26T00:10:58.396Z,3.47
2023-04-26T00:13:25.044Z,4.43
2023-04-26T00:15:51.663Z,4.00
2023-04-26T00:18:18.256Z,3.47
2023-04-26T00:20:44.694Z,3.55
2023-04-26T00:23:11.089Z,2.92
2023-04-26T00:25:37.780Z,3.90
2023-04-26T00:28:04.454Z,4.15
2023-04-26T00:30:31.012Z,4.57
2023-04-26T00:32:57.468Z,3.53
2023-04-26T00:35:23.980Z,4.00
2023-04-26T00:37:50.707Z,3.70
2023-04-26T00:40:17.284Z,4.25
2023-04-26T00:42:43.742Z,3.90
2023-04-26T00:45:10.176Z,3.80
2023-04-26T00:47:36.702Z,3.88
2023-04-26T00:50:04.528Z,4.32
2023-04-26T00:52:31.029Z,4.13
2023-04-26T00:54:57.668Z,4.32
2023-04-26T00:57:24.098Z,3.80
2023-04-26T00:59:50.481Z,4.07
2023-04-26T01:02:17.596Z,4.38
2023-04-26T01:04:45.279Z,4.38
2023-04-26T01:07:11.930Z,4.53
2023-04-26T01:09:38.406Z,5.53
2023-04-26T01:12:05.411Z,4.60
2023-04-26T01:14:31.938Z,4.00
2023-04-26T01:16:58.432Z,4.97
2023-04-26T01:19:25.618Z,4.72
2023-04-26T01:21:52.084Z,5.05
2023-04-26T01:24:18.492Z,5.05
2023-04-26T01:26:46.502Z,4.45
2023-04-26T01:29:16.655Z,4.38
2023-04-26T01:31:43.329Z,4.15
2023-04-26T01:34:09.881Z,4.70
2023-04-26T01:36:36.339Z,4.72
2023-04-26T01:39:02.774Z,4.95
2023-04-26T01:41:29.177Z,4.82
2023-04-26T01:43:55.695Z,4.70
2023-04-26T01:46:22.493Z,4.95
2023-04-26T01:48:48.945Z,4.55
2023-04-26T01:51:15.344Z,5.13
2023-04-26T01:53:41.797Z,5.60
2023-04-26T01:56:08.229Z,5.07
2023-04-26T01:58:34.597Z,5.93
2023-04-26T02:01:08.857Z,5.32
2023-04-26T02:03:35.948Z,4.47
2023-04-26T02:06:02.833Z,5.40
2023-04-26T02:08:29.932Z,5.40
2023-04-26T02:10:56.375Z,4.97
2023-04-26T02:13:22.772Z,5.15
2023-04-26T02:15:49.991Z,4.60
2023-04-26T02:18:17.607Z,5.07
2023-04-26T02:20:45.655Z,4.70
2023-04-26T02:23:12.611Z,5.50
2023-04-26T02:25:39.175Z,5.47
2023-04-26T02:28:05.827Z,5.18
2023-04-26T02:30:32.227Z,4.85
2023-04-26T02:32:58.886Z,5.30
2023-04-26T02:35:25.636Z,5.18
2023-04-26T02:37:55.081Z,4.75
2023-04-26T02:40:21.611Z,5.15
2023-04-26T02:42:49.009Z,5.00
2023-04-26T02:45:15.442Z,4.57
2023-04-26T02:47:41.849Z,5.45
2023-04-26T02:50:09.125Z,5.88
2023-04-26T02:52:36.339Z,5.28
2023-04-26T02:55:06.495Z,4.70
2023-04-26T02:57:34.027Z,4.45
2023-04-26T03:00:01.164Z,4.50
2023-04-26T03:02:27.854Z,4.72
2023-04-26T03:04:55.892Z,5.20
2023-04-26T03:07:22.444Z,5.10
2023-04-26T03:09:48.896Z,5.45
2023-04-26T03:12:15.309Z,5.75
2023-04-26T03:14:41.808Z,4.88
2023-04-26T03:17:08.351Z,6.25
2023-04-26T03:19:34.742Z,6.43
2023-04-26T03:22:01.280Z,5.85
2023-04-26T03:24:27.723Z,6.45
2023-04-26T03:26:54.122Z,6.28
2023-04-26T03:29:20.515Z,5.43
2023-04-26T03:31:47.075Z,6.95
2023-04-26T03:34:13.450Z,6.68
2023-04-26T03:36:39.895Z,6.63
2023-04-26T03:39:06.381Z,5.82
2023-04-26T03:41:33.570Z,6.13
2023-04-26T03:44:00.009Z,6.20
2023-04-26T03:46:26.458Z,5.68
2023-04-26T03:48:53.267Z,6.63
2023-04-26T03:51:19.889Z,6.22
2023-04-26T03:53:48.571Z,6.90
2023-04-26T03:56:14.964Z,6.35
2023-04-26T03:58:42.094Z,6.80
2023-04-26T04:01:08.650Z,7.25
2023-04-26T04:03:35.827Z,7.45
2023-04-26T04:06:04.029Z,7.38
2023-04-26T04:08:30.549Z,7.40
2023-04-26T04:10:56.944Z,7.65
2023-04-26T04:13:23.336Z,8.27
2023-04-26T04:15:49.764Z,7.88
2023-04-26T04:18:16.304Z,7.38
2023-04-26T04:20:42.717Z,8.73
2023-04-26T04:23:09.867Z,8.75
2023-04-26T04:25:36.578Z,7.55
2023-04-26T04:28:03.590Z,7.60
2023-04-26T04:30:30.638Z,7.28
2023-04-26T04:32:59.172Z,8.25
2023-04-26T04:35:28.872Z,8.27
2023-04-26T04:37:58.975Z,9.05
2023-04-26T04:40:26.184Z,8.50
2023-04-26T04:42:53.419Z,9.70
2023-04-26T04:45:20.185Z,9.48
2023-04-26T04:47:46.620Z,9.93
2023-04-26T04:50:13.231Z,9.10
2023-04-26T04:52:39.631Z,10.98
2023-04-26T04:55:06.278Z,9.48
2023-04-26T04:57:32.650Z,10.13
2023-04-26T04:59:59.319Z,9.15
2023-04-26T05:02:26.016Z,11.90
2023-04-26T05:04:52.718Z,10.70
2023-04-26T05:07:19.235Z,11.82
2023-04-26T05:09:45.625Z,12.32
2023-04-26T05:12:12.072Z,12.15
2023-04-26T05:14:38.626Z,11.85
2023-04-26T05:17:05.046Z,12.00
2023-04-26T05:19:31.943Z,12.88
2023-04-26T05:21:59.134Z,12.50
2023-04-26T05:24:25.518Z,13.18
2023-04-26T05:26:51.931Z,11.23
2023-04-26T05:29:18.655Z,12.10
2023-04-26T05:31:45.122Z,13.68
2023-04-26T05:34:11.558Z,13.63
2023-04-26T05:36:38.083Z,12.48
2023-04-26T05:39:05.766Z,13.90
2023-04-26T05:41:32.174Z,12.80
2023-04-26T05:43:58.553Z,12.85
2023-04-26T05:46:25.077Z,13.20
2023-04-26T05:48:51.894Z,13.93
2023-04-26T05:51:18.315Z,13.15
2023-04-26T05:53:44.705Z,13.30
2023-04-26T05:56:11.083Z,14.45
2023-04-26T05:58:37.548Z,15.00
2023-04-26T06:01:03.972Z,15.20
2023-04-26T06:03:30.960Z,14.73
2023-04-26T06:05:59.186Z,13.60
2023-04-26T06:08:28.223Z,13.52
2023-04-26T06:10:54.632Z,16.85
2023-04-26T06:13:21.023Z,16.58
2023-04-26T06:15:47.473Z,15.52
2023-04-26T06:18:14.052Z,14.60
2023-04-26T06:20:41.002Z,12.07
2023-04-26T06:23:07.704Z,12.10
2023-04-26T06:25:34.215Z,12.25
2023-04-26T06:28:00.875Z,12.02
2023-04-26T06:30:27.365Z,12.98
2023-04-26T06:32:54.133Z,12.43
2023-04-26T06:35:23.279Z,11.73
2023-04-26T06:37:49.682Z,11.38
2023-04-26T06:40:16.473Z,11.35
2023-04-26T06:42:43.395Z,10.95
2023-04-26T06:45:10.612Z,10.40
2023-04-26T06:47:37.596Z,10.68
2023-04-26T06:50:04.877Z,11.45
2023-04-26T06:52:31.330Z,8.85
2023-04-26T06:55:00.942Z,9.80
2023-04-26T06:57:27.377Z,9.55
2023-04-26T06:59:53.773Z,9.80
2023-04-26T07:02:20.334Z,10.02
2023-04-26T07:04:47.009Z,8.77
2023-04-26T07:07:14.459Z,9.20
2023-04-26T07:09:41.005Z,8.90
2023-04-26T07:12:07.508Z,9.68
2023-04-26T07:14:37.130Z,8.13
2023-04-26T07:17:04.967Z,10.18
2023-04-26T07:19:31.358Z,8.85
2023-04-26T07:21:57.762Z,9.23
2023-04-26T07:24:24.158Z,9.13
2023-04-26T07:26:50.544Z,8.63
2023-04-26T07:29:18.773Z,7.53
2023-04-26T07:31:46.000Z,4.13
2023-04-26T07:34:13.000Z,5.10
2023-04-26T07:36:39.415Z,5.20
2023-04-26T07:39:06.506Z,2.78
2023-04-26T07:41:32.905Z,4.25
2023-04-26T07:43:59.399Z,4.68
2023-04-26T07:46:25.924Z,5.57
2023-04-26T07:48:52.389Z,4.63
2023-04-26T07:51:18.842Z,5.68
2023-04-26T07:53:45.243Z,5.47
2023-04-26T07:56:11.670Z,5.32
2023-04-26T07:58:39.519Z,3.17
2023-04-26T08:01:06.158Z,4.95
2023-04-26T08:03:32.985Z,4.30
2023-04-26T08:05:59.834Z,5.03
2023-04-26T08:08:26.920Z,4.68
2023-04-26T08:10:53.625Z,4.35
2023-04-26T08:13:20.423Z,5.05
2023-04-26T08:15:47.832Z,5.30
2023-04-26T08:18:14.293Z,6.05
2023-04-26T08:20:41.024Z,2.88
2023-04-26T08:23:07.400Z,3.33
2023-04-26T08:25:36.612Z,4.22
2023-04-26T08:28:03.074Z,3.78
2023-04-26T08:30:29.600Z,4.18
2023-04-26T08:32:56.581Z,3.60
2023-04-26T08:35:23.268Z,3.70
2023-04-26T08:37:49.697Z,3.88
2023-04-26T08:40:22.181Z,4.40
2023-04-26T08:42:48.717Z,3.42
2023-04-26T08:45:16.221Z,3.67
2023-04-26T08:47:50.186Z,2.88
2023-04-26T08:50:20.027Z,2.33
2023-04-26T08:52:48.578Z,3.33
2023-04-26T08:55:18.496Z,3.70
2023-04-26T08:57:49.173Z,4.15
2023-04-26T09:00:17.003Z,4.85
2023-04-26T09:02:51.050Z,4.38
2023-04-26T09:05:18.112Z,4.65
2023-04-26T09:07:45.697Z,2.55
2023-04-26T09:10:13.472Z,1.83
2023-04-26T09:12:40.642Z,2.42
2023-04-26T09:15:07.654Z,3.13
2023-04-26T09:17:38.896Z,2.47
2023-04-26T09:20:23.663Z,3.37
2023-04-26T09:22:53.134Z,2.72
2023-04-26T09:25:27.771Z,3.03
2023-04-26T09:27:54.325Z,3.20
2023-04-26T09:30:22.047Z,2.88
2023-04-26T09:32:48.412Z,4.00
2023-04-26T09:35:33.337Z,3.63
2023-04-26T09:38:13.854Z,3.47
2023-04-26T09:40:51.113Z,3.60
2023-04-26T09:43:18.208Z,3.35
2023-04-26T09:45:49.369Z,4.05
2023-04-26T09:48:18.124Z,3.47
2023-04-26T09:50:48.613Z,2.30
2023-04-26T09:53:38.409Z,2.10
2023-04-26T09:56:15.902Z,2.67
2023-04-26T09:58:52.536Z,2.72
2023-04-26T10:01:19.730Z,2.63
2023-04-26T10:03:46.945Z,2.58
2023-04-26T10:06:13.725Z,2.40
2023-04-26T10:08:40.300Z,2.97
2023-04-26T10:11:12.873Z,2.30
2023-04-26T10:13:41.457Z,3.17
2023-04-26T10:16:09.699Z,2.38
2023-04-26T10:18:36.375Z,3.08
2023-04-26T10:21:07.655Z,2.40
2023-04-26T10:23:34.656Z,3.20
2023-04-26T10:26:01.161Z,2.72
2023-04-26T10:28:50.839Z,3.08
2023-04-26T10:31:19.995Z,2.90
2023-04-26T10:34:19.126Z,3.20
2023-04-26T10:37:08.425Z,3.30
2023-04-26T10:39:36.285Z,3.03
2023-04-26T10:42:24.717Z,3.97
2023-04-26T10:44:52.990Z,3.67
2023-04-26T10:47:25.350Z,3.30
2023-04-26T10:49:52.121Z,3.40
2023-04-26T10:52:20.395Z,3.33
2023-04-26T10:54:51.196Z,3.58
2023-04-26T10:57:17.988Z,3.25
2023-04-26T11:00:10.685Z,3.25
2023-04-26T11:02:51.864Z,3.40
2023-04-26T11:05:37.492Z,3.15
2023-04-26T11:08:25.686Z,3.00
2023-04-26T11:11:02.125Z,3.80
2023-04-26T11:13:37.918Z,3.15
2023-04-26T11:16:11.798Z,2.97
2023-04-26T11:18:41.814Z,2.92
2023-04-26T11:21:08.910Z,2.85
2023-04-26T11:23:36.408Z,2.80
2023-04-26T11:26:05.086Z,2.70
2023-04-26T11:28:34.051Z,2.72
2023-04-26T11:31:00.876Z,2.75
2023-04-26T11:33:27.556Z,2.35
2023-04-26T11:35:58.056Z,2.58
2023-04-26T11:38:25.576Z,2.90
2023-04-26T11:41:03.029Z,3.25
2023-04-26T11:43:39.364Z,2.92
2023-04-26T11:46:07.361Z,3.13
2023-04-26T11:48:35.876Z,2.15
2023-04-26T11:51:07.304Z,2.97
2023-04-26T11:53:38.757Z,3.45
2023-04-26T11:56:17.032Z,3.00
2023-04-26T11:58:53.137Z,2.85
2023-04-26T12:01:21.070Z,2.80
2023-04-26T12:03:54.117Z,2.92
2023-04-26T12:06:21.433Z,3.17
2023-04-26T12:08:51.905Z,2.70
2023-04-26T12:11:18.770Z,2.60
2023-04-26T12:13:46.584Z,2.78
2023-04-26T12:16:25.663Z,3.13
2023-04-26T12:18:54.618Z,2.78
2023-04-26T12:21:21.357Z,3.38
2023-04-26T12:23:48.913Z,3.10
2023-04-26T12:26:15.461Z,3.55
2023-04-26T12:28:42.089Z,4.13
2023-04-26T12:31:08.923Z,3.70
2023-04-26T12:33:36.041Z,3.47
2023-04-26T12:36:10.324Z,3.42
2023-04-26T12:38:37.239Z,4.03
2023-04-26T12:41:04.152Z,3.70
2023-04-26T12:43:30.648Z,3.15
2023-04-26T12:45:57.156Z,2.67
2023-04-26T12:48:23.817Z,3.42
2023-04-26T12:50:51.296Z,2.97
2023-04-26T12:53:18.516Z,3.40
2023-04-26T12:55:44.986Z,3.17
2023-04-26T12:58:11.644Z,3.22
2023-04-26T13:00:38.208Z,3.10
2023-04-26T13:03:04.812Z,3.03
2023-04-26T13:05:32.223Z,3.13
2023-04-26T13:08:00.366Z,3.25
2023-04-26T13:10:26.985Z,3.50
2023-04-26T13:12:53.874Z,3.05
2023-04-26T13:15:21.496Z,2.95
2023-04-26T13:17:47.926Z,3.20
2023-04-26T13:20:14.374Z,2.35
2023-04-26T13:22:42.438Z,3.05
2023-04-26T13:25:10.075Z,3.42
2023-04-26T13:27:36.829Z,3.38
2023-04-26T13:30:03.800Z,2.53
2023-04-26T13:32:30.191Z,3.33
2023-04-26T13:34:56.880Z,3.05
2023-04-26T13:37:23.778Z,3.40
2023-04-26T13:39:50.266Z,2.80
2023-04-26T13:42:18.224Z,2.45
2023-04-26T13:44:44.635Z,2.47
2023-04-26T13:47:11.165Z,2.95
2023-04-26T13:49:39.141Z,3.10
2023-04-26T13:52:05.734Z,2.63
2023-04-26T13:54:32.154Z,2.78
2023-04-26T13:56:58.864Z,3.40
2023-04-26T13:59:25.428Z,3.53
2023-04-26T14:01:54.280Z,3.00
2023-04-26T14:04:21.839Z,3.20
2023-04-26T14:06:48.366Z,3.25
2023-04-26T14:09:14.825Z,3.15
2023-04-26T14:11:41.267Z,3.00
2023-04-26T14:14:07.810Z,3.08
2023-04-26T14:16:34.242Z,2.60
2023-04-26T14:19:01.754Z,3.22
2023-04-26T14:21:28.184Z,2.53
2023-04-26T14:23:54.840Z,2.50
2023-04-26T14:26:21.525Z,3.05
2023-04-26T14:28:48.022Z,3.10
2023-04-26T14:31:14.581Z,3.05
2023-04-26T14:33:41.022Z,2.97
2023-04-26T14:36:08.331Z,2.63
2023-04-26T14:38:34.835Z,2.58
2023-04-26T14:41:01.548Z,3.67
2023-04-26T14:43:27.972Z,3.40
2023-04-26T14:45:55.561Z,3.10
2023-04-26T14:48:22.725Z,3.17
2023-04-26T14:50:49.100Z,2.95
2023-04-26T14:53:15.871Z,2.97
2023-04-26T14:55:42.254Z,3.55
2023-04-26T14:58:08.684Z,4.13
2023-04-26T15:00:35.057Z,3.78
2023-04-26T15:03:01.897Z,3.80
2023-04-26T15:05:28.425Z,3.67
2023-04-26T15:07:54.857Z,4.38
2023-04-26T15:10:21.279Z,3.80
2023-04-26T15:12:47.717Z,4.07
2023-04-26T15:15:15.313Z,3.38
2023-04-26T15:17:41.736Z,3.58
2023-04-26T15:20:09.480Z,4.35
2023-04-26T15:22:38.102Z,2.83
2023-04-26T15:25:06.161Z,3.33
2023-04-26T15:27:35.234Z,2.90
2023-04-26T15:30:03.572Z,2.70
2023-04-26T15:32:30.257Z,3.47
2023-04-26T15:34:56.856Z,3.58
2023-04-26T15:37:23.410Z,2.75
2023-04-26T15:39:49.809Z,3.40
2023-04-26T15:42:16.204Z,3.42
2023-04-26T15:44:42.575Z,3.15
2023-04-26T15:47:08.952Z,3.00
2023-04-26T15:49:35.394Z,3.53
2023-04-26T15:52:01.779Z,3.28
2023-04-26T15:54:28.223Z,2.90
2023-04-26T15:56:55.199Z,2.88
2023-04-26T15:59:21.591Z,2.97
2023-04-26T16:01:48.033Z,3.65
2023-04-26T16:04:14.748Z,3.45
2023-04-26T16:06:42.068Z,3.70
2023-04-26T16:09:23.837Z,3.72
2023-04-26T16:11:51.464Z,3.30
2023-04-26T16:14:17.861Z,3.60
2023-04-26T16:16:45.833Z,3.78
2023-04-26T16:19:12.413Z,3.97
2023-04-26T16:21:40.110Z,3.67
2023-04-26T16:24:08.775Z,3.35
2023-04-26T16:26:35.394Z,3.95
2023-04-26T16:29:01.816Z,4.47
2023-04-26T16:31:28.288Z,3.90
2023-04-26T16:33:54.697Z,4.25
2023-04-26T16:36:21.244Z,4.00
2023-04-26T16:38:47.644Z,3.67
2023-04-26T16:41:14.021Z,4.00
2023-04-26T16:43:40.583Z,3.72
2023-04-26T16:46:07.908Z,3.78
2023-04-26T16:48:35.452Z,4.10
2023-04-26T16:51:06.380Z,4.05
2023-04-26T16:53:33.762Z,4.57
2023-04-26T16:56:00.395Z,5.00
2023-04-26T16:58:26.836Z,4.13
2023-04-26T17:00:53.339Z,4.22
2023-04-26T17:03:20.103Z,3.90
2023-04-26T17:05:47.649Z,3.85
2023-04-26T17:08:14.879Z,3.47
2023-04-26T17:10:42.411Z,3.83
2023-04-26T17:13:09.017Z,4.00
2023-04-26T17:15:36.169Z,3.10
2023-04-26T17:18:04.361Z,4.35
2023-04-26T17:20:31.868Z,4.20
2023-04-26T17:22:59.060Z,4.38
2023-04-26T17:25:25.979Z,4.30
2023-04-26T17:27:52.606Z,3.95
2023-04-26T17:30:19.977Z,4.07
2023-04-26T17:32:46.490Z,4.07
2023-04-26T17:35:13.420Z,4.15
2023-04-26T17:37:41.841Z,5.07
2023-04-26T17:40:09.085Z,4.38
2023-04-26T17:42:35.629Z,4.40
2023-04-26T17:45:02.088Z,4.00
2023-04-26T17:47:28.864Z,4.55
2023-04-26T17:49:55.365Z,4.60
2023-04-26T17:52:21.803Z,3.92
2023-04-26T17:54:48.248Z,4.72
2023-04-26T17:57:17.749Z,4.60
2023-04-26T17:59:44.316Z,5.45
2023-04-26T18:02:10.757Z,5.00
2023-04-26T18:04:37.584Z,4.43
2023-04-26T18:07:04.441Z,4.53
2023-04-26T18:09:31.146Z,4.85
2023-04-26T18:11:57.529Z,4.68
2023-04-26T18:14:24.966Z,4.80
2023-04-26T18:16:51.503Z,4.75
2023-04-26T18:19:18.124Z,5.35
2023-04-26T18:21:44.511Z,5.32
2023-04-26T18:24:11.242Z,5.10
2023-04-26T18:26:39.211Z,5.05
2023-04-26T18:29:07.427Z,5.57
2023-04-26T18:31:34.071Z,5.30
2023-04-26T18:34:00.655Z,4.93
2023-04-26T18:36:27.193Z,5.28
2023-04-26T18:38:54.193Z,5.28
2023-04-26T18:41:21.231Z,4.78
2023-04-26T18:43:47.620Z,4.82
2023-04-26T18:46:14.026Z,5.03
2023-04-26T18:48:40.431Z,4.90
2023-04-26T18:51:06.901Z,6.55
2023-04-26T18:53:33.307Z,6.00
2023-04-26T18:55:59.838Z,6.03
2023-04-26T18:58:26.208Z,5.88
2023-04-26T19:00:53.404Z,5.72
2023-04-26T19:03:20.127Z,5.55
2023-04-26T19:05:46.874Z,5.55
2023-04-26T19:08:13.329Z,5.50
2023-04-26T19:10:39.713Z,5.85
2023-04-26T19:13:06.312Z,5.82
2023-04-26T19:15:32.710Z,5.47
2023-04-26T19:17:59.141Z,5.32
2023-04-26T19:20:26.700Z,5.07
2023-04-26T19:22:53.245Z,5.43
2023-04-26T19:25:23.009Z,5.15
2023-04-26T19:27:50.131Z,5.05
2023-04-26T19:30:16.522Z,4.78
2023-04-26T19:32:42.937Z,5.05
2023-04-26T19:35:09.751Z,5.70
2023-04-26T19:37:36.369Z,4.80
2023-04-26T19:40:05.942Z,5.25
2023-04-26T19:42:32.396Z,5.45
2023-04-26T19:44:58.796Z,5.30
2023-04-26T19:47:25.271Z,4.93
2023-04-26T19:49:52.994Z,6.18
2023-04-26T19:52:19.733Z,5.70
2023-04-26T19:54:46.223Z,5.82
2023-04-26T19:57:12.594Z,5.68
2023-04-26T19:59:38.973Z,5.85
2023-04-26T20:02:06.630Z,6.28
2023-04-26T20:04:33.300Z,5.35
2023-04-26T20:06:59.741Z,5.22
2023-04-26T20:09:26.272Z,5.57
2023-04-26T20:11:53.108Z,5.32
2023-04-26T20:14:19.515Z,5.55
2023-04-26T20:16:45.971Z,5.57
2023-04-26T20:19:12.441Z,6.00
2023-04-26T20:21:38.844Z,5.38
2023-04-26T20:24:05.609Z,5.72
2023-04-26T20:26:32.008Z,5.63
2023-04-26T20:28:58.401Z,5.88
2023-04-26T20:31:24.865Z,6.00
2023-04-26T20:33:51.422Z,6.03
2023-04-26T20:36:18.129Z,6.03
2023-04-26T20:38:44.595Z,6.18
2023-04-26T20:41:10.983Z,6.25
2023-04-26T20:43:37.430Z,6.00
2023-04-26T20:46:03.894Z,6.45
2023-04-26T20:48:30.417Z,6.00
2023-04-26T20:50:58.679Z,6.60
2023-04-26T20:53:25.113Z,6.57
2023-04-26T20:55:52.855Z,6.15
2023-04-26T20:58:19.354Z,6.07
2023-04-26T21:00:48.909Z,6.07
2023-04-26T21:03:15.453Z,6.43
2023-04-26T21:05:41.882Z,6.43
2023-04-26T21:08:08.299Z,6.82
2023-04-26T21:10:34.738Z,6.97
2023-04-26T21:13:01.176Z,6.70
2023-04-26T21:15:27.643Z,7.35
2023-04-26T21:17:54.185Z,6.97
2023-04-26T21:20:20.614Z,7.25
2023-04-26T21:22:47.007Z,7.45
2023-04-26T21:25:16.802Z,8.00
2023-04-26T21:27:43.332Z,6.82
2023-04-26T21:30:11.179Z,7.53
2023-04-26T21:32:40.130Z,7.78
2023-04-26T21:35:07.505Z,7.00
2023-04-26T21:37:33.897Z,6.85
2023-04-26T21:40:00.428Z,7.93
2023-04-26T21:42:27.568Z,9.10
2023-04-26T21:44:53.927Z,9.65
2023-04-26T21:47:20.352Z,10.15
2023-04-26T21:49:46.736Z,9.48
2023-04-26T21:52:13.186Z,12.20
2023-04-26T21:54:39.637Z,11.00
2023-04-26T21:57:06.736Z,9.80
2023-04-26T21:59:33.603Z,9.80
2023-04-26T22:02:00.121Z,9.07
2023-04-26T22:04:26.665Z,8.80
2023-04-26T22:06:53.115Z,9.45
2023-04-26T22:09:20.885Z,8.85
2023-04-26T22:11:47.340Z,8.70
2023-04-26T22:14:14.024Z,8.10
2023-04-26T22:16:40.469Z,8.05
2023-04-26T22:19:06.899Z,7.40
2023-04-26T22:21:33.303Z,8.07
2023-04-26T22:23:59.867Z,8.32
2023-04-26T22:26:26.711Z,7.75
2023-04-26T22:28:53.126Z,8.27
2023-04-26T22:31:19.612Z,7.47
2023-04-26T22:33:46.262Z,7.95
2023-04-26T22:36:13.084Z,9.00
2023-04-26T22:38:39.737Z,7.95
2023-04-26T22:41:07.174Z,8.45
2023-04-26T22:43:34.384Z,8.85
2023-04-26T22:46:01.016Z,8.02
2023-04-26T22:48:27.525Z,8.35
2023-04-26T22:50:53.957Z,7.88
2023-04-26T22:53:21.362Z,8.18
2023-04-26T22:55:47.807Z,8.02
2023-04-26T22:58:14.207Z,8.38
2023-04-26T23:00:40.575Z,8.70
2023-04-26T23:03:07.007Z,7.40
2023-04-26T23:05:33.418Z,8.35
2023-04-26T23:07:59.805Z,8.50
2023-04-26T23:10:26.283Z,8.63
2023-04-26T23:12:52.886Z,7.85
2023-04-26T23:15:19.463Z,8.23
2023-04-26T23:17:46.532Z,8.20
2023-04-26T23:20:13.057Z,8.68
2023-04-26T23:22:40.865Z,8.65
2023-04-26T23:25:08.731Z,8.15
2023-04-26T23:27:35.339Z,8.13
2023-04-26T23:30:01.755Z,8.07
2023-04-26T23:32:28.262Z,8.57
2023-04-26T23:34:54.712Z,8.80
2023-04-26T23:37:21.297Z,7.95
2023-04-26T23:39:47.678Z,8.85
2023-04-26T23:42:14.063Z,9.45
2023-04-26T23:44:40.659Z,8.30
2023-04-26T23:47:07.030Z,7.35
2023-04-26T23:49:33.410Z,8.05
2023-04-26T23:51:59.852Z,8.13
2023-04-26T23:54:26.625Z,8.07
2023-04-26T23:56:53.044Z,8.38
2023-04-26T23:59:19.456Z,7.60
